EYSA/SQQ METAR and TAF weather

Enter ICAO airport designator
Station Type Date Time Source
EYSA METAR 2021/09/20 05:50 UTC NOAA

EYSA 200550Z 36010KT 9999 FEW045 SCT077 BKN100 04/03 Q1018 NOSIG


Station Type Date Time Source
EYSA Decoded METAR 2021/09/20 05:50 UTC NOAA

Siauliai Intl./Mil., Lithuania (EYSA) 55-53-38N 023-23-42E
Sep 20, 2021 - 01:50 AM EDT / 2021.09.20 0550 UTC
Wind: from the N (360 degrees) at 12 MPH (10 KT):0
Visibility: greater than 7 mile(s):0
Sky conditions: mostly cloudy
Temperature: 39 F (4 C)
Dew Point: 37 F (3 C)
Relative Humidity: 93%
Pressure (altimeter): 30.06 in. Hg (1018 hPa)
ob: EYSA 200550Z 36010KT 9999 FEW045 SCT077 BKN100 04/03 Q1018 NOSIG
cycle: 6

Station Type Date Time Source
EYSA TAF 2021/09/12 03:24 UTC NOAA

TAF
AMD TAF
AMD EYSA 120722Z 1203/1215 24010KT 8000 BKN020
TEMPO 1207/1010 3000 BR BKN005
TEMPO 1210/1212 BKN015CB
TEMPO 1212/121 5000 SHRA SCT005 BKN020CB

Example: see airport list